ADDS METAR Data INFO
IDs: Format: Raw Decoded Include TAF

Data at: 1011 UTC 14 Dec 2017

KBGR 140953Z 23010G17KT 10SM BKN150 M10/M14 A2946 RMK AO2 SLP981 T11001144
KBGR 140853Z 23008G17KT 10SM BKN150 M11/M15 A2942 RMK AO2 SLP967 T11061150 51024
KBGR 140753Z 23007KT 10SM FEW150 M11/M16 A2942 RMK AO2 SLP966 T11111156
KBGR 140653Z 20007KT 10SM CLR M12/M16 A2940 RMK AO2 SLP959 T11221156
KBGR 140553Z 22007KT 10SM CLR M12/M16 A2935 RMK AO2 SLP944 4/006 T11171161 11106 21122 51027
KBGR 140453Z 24009KT 10SM CLR M12/M16 A2933 RMK AO2 SLP937 T11171161 400061122
KBGR 140353Z 25008KT 10SM CLR M12/M16 A2930 RMK AO2 SLP927 T11171161
KBGR 140253Z 24006KT 10SM FEW070 M12/M16 A2927 RMK AO2 SLP917 T11171161 51029
KBGR 140153Z 25006KT 10SM FEW070 SCT120 M11/M15 A2925 RMK AO2 SLP908 T11111150
KBGR 140053Z 26006KT 10SM FEW070 SCT110 M11/M14 A2922 RMK AO2 SLP897 T11061144
KBGR 132353Z 30005KT 10SM FEW020 SCT045 BKN070 M11/M14 A2919 RMK AO2 SLP887 4/006 T11061144 11044 21106 53036
KBGR 132253Z 29007KT 10SM FEW020 BKN045 M09/M13 A2915 RMK AO2 SLP875 T10941128
KBGR 132153Z 30011G20KT 10SM SCT020 BKN050 BKN070 M08/M12 A2911 RMK AO2 SLP861 T10781122
KBGR 132053Z 30008G17KT 10SM OVC060 M06/M10 A2908 RMK AO2 SLP849 T10611100 53012
KBGR 131953Z 29008KT 250V320 10SM SCT045 BKN065 M05/M09 A2905 RMK AO2 SLP841 T10501089
KBGR 131853Z VRB05KT 10SM SCT020 OVC045 M04/M08 A2904 RMK AO2 SLP836 BINOVC T10441078
KBGR 131753Z 27009KT 10SM SCT022 BKN045 OVC080 M04/M08 A2904 RMK AO2 SLP837 4/006 60000 T10441078 11011 21044 55009
KBGR 131653Z 27007KT 10SM SCT018 BKN045 BKN110 M04/M07 A2903 RMK AO2 SLP834 T10391072
KBGR 131553Z 31011KT 10SM FEW018 BKN045 BKN100 M04/M07 A2904 RMK AO2 SLP836 T10391067
KBGR 131453Z 29008KT 10SM SCT016 BKN048 OVC110 M04/M07 A2907 RMK AO2 SLP847 60000 T10391067 51013
KBGR 131353Z 31014G23KT 10SM FEW010 SCT015 BKN045 M03/M07 A2905 RMK AO2 SLP841 T10331067 $
KBGR 131253Z 30009G14KT 10SM BKN015 OVC029 M02/M04 A2905 RMK AO2 SNE04 SLP841 P0000 T10171039 $
KBGR 131243Z 28009G15KT 10SM BKN013 OVC019 M02/M03 A2906 RMK AO2 SNE04 PRESRR P0000 T10171033 $
KBGR 131205Z COR 29010KT 4SM BR BKN007 OVC013 M01/M03 A2903 RMK AO2 SNE04 CIG 005V009 P0000 T10111028 $
KBGR 131153Z 28009G17KT 2SM -SN BR BKN007 BKN012 OVC023 M01/M02 A2903 RMK AO2 SLP834 4/006 P0002 60026 7//// I6000 T10061017 10006 21006 55010 $
KBGR 131133Z 30009KT 3SM -SN BR BKN007 OVC022 M01/M01 A2904 RMK AO2 P0002 T10061011 $
KBGR 131116Z 29010G22KT 1 3/4SM -SN BR FEW004 BKN008 OVC022 M01/M01 A2905 RMK AO2 P0002 T10061011 $
KBGR 131110Z 27014G22KT 2 1/2SM -SN BR BKN004 BKN008 OVC016 00/M01 A2905 RMK AO2 P0002 T00001006 $
KBGR 131108Z 26013G20KT 3SM -SN BR BKN004 OVC016 00/M01 A2905 RMK AO2 P0002 T00001006 $
KBGR 131103Z 26008KT 3SM -SN BR SCT006 BKN014 OVC020 01/M01 A2905 RMK AO2 P0002 T00061006 $
KBGR 131053Z 31005KT 2SM -SN BR FEW002 SCT008 OVC018 01/00 A2903 RMK AO2 RAB05E34PLE09SNE13B34 SLP832 P0013 T00060000 $
KBGR 131042Z 26005KT 1 3/4SM -SN BR FEW008 BKN017 OVC025 01/M01 A2904 RMK AO2 RAB05E34PLE09SNE13B34 P0012 T00061006 $
KBGR 131036Z 25003KT 4SM -SN BR FEW008 BKN019 OVC032 00/00 A2904 RMK AO2 RAB05E34PLE09SNE13B34 P0012 T00000000 $
KBGR 131031Z 00000KT 7SM -RA SCT019 SCT025 OVC032 01/00 A2904 RMK AO2 RAB05PLE09SNE13 P0012 T00060000 $
KBGR 131009Z 00000KT 3SM -RASN BR OVC019 01/01 A2903 RMK AO2 RAB05PLE09 PRESFR P0009 T00060006 $
KBGR 131005Z 00000KT 1 1/4SM R15/5500VP6000FT -RASNPL BR FEW003 BKN016 OVC022 01/00 A2904 RMK AO2 RAB05 PRESFR P0008 T00060000 $
KBGR 130953Z 26004KT 3/4SM R15/6000VP6000FT -SNPL BR SCT003 OVC009 00/00 A2905 RMK AO2 RAE48SNB48PLB48 SLP840 P0011 I1000 T00000000 $
KBGR 130949Z 26004KT 1 1/4SM R15/6000VP6000FT -SNPL BR SCT003 OVC009 00/00 A2906 RMK AO2 RAE48SNB48PLB48 P0010 I1000 $
KBGR 130929Z 29005KT 2 1/2SM -RA BR OVC002 00/00 A2904 RMK AO2 P0002 T00000000 $
KBGR 130900Z 31005KT 1 1/4SM -RA BR OVC002 00/00 A2906 RMK AO2 P0000 T00000000 $
KBGR 130853Z 30003KT 3/4SM R15/P6000FT -RA BR OVC002 00/00 A2906 RMK AO2 SLP844 RAB31 P0000 60000 T00000000 58024 $
KBGR 130753Z 27005KT 3/4SM R15/4000V4500FT BR OVC002 00/00 A2909 RMK AO2 SLP853 T00000000 $
KBGR 130715Z 28004KT 3/4SM R15/3500V4000FT BR OVC002 00/00 A2909 RMK AO2 T00000000 $
KBGR 130653Z 26004KT 1 1/4SM BR OVC002 01/00 A2911 RMK AO2 SLP860 T00060000 $
KBGR 130637Z 31003KT 1 3/4SM BR OVC002 01/00 A2911 RMK AO2 T00060000 $
KBGR 130622Z 27003KT 2 1/2SM BR OVC002 01/M01 A2911 RMK AO2 T00061006 $
KBGR 130553Z 27003KT 3SM BR OVC002 01/00 A2913 RMK AO2 RAE21FZRAB0455E0456 SLP868 4/006 P0000 6//// I1001 I6014 T00060000 10006 21039 56027 $
KBGR 130453Z 01005KT 4SM -RA BR OVC003 01/M01 A2916 RMK AO2 RAB44FZRAE44PLE0358 SLP878 P0000 I1002 T00061006 400061106 $
KBGR 130450Z 01005KT 4SM -RA BR OVC003 01/M01 A2917 RMK AO2 RAB44FZRAE44PLE0358 P0000 I1002 $
KBGR 130404Z 02009KT 4SM -FZRA BR BKN003 OVC007 00/M01 A2920 RMK AO2 PLE0358 PRESFR P0000 I1000 T00001006 $
KBGR 130353Z 36008KT 3SM -FZRAPL BR OVC004 00/M01 A2922 RMK AO2 PRESFR SLP896 P0006 I1005 T00001006 $
KBGR 130253Z 02008KT 3SM -FZRAPL BR OVC004 00/M01 A2927 RMK AO2 SNE10B33E50 SLP917 6//// I1003 I3006 T00001011 56065 PNO $
KBGR 130153Z 02011KT 3SM -FZRASNPL BR BKN004 OVC015 M01/M02 A2931 RMK AO2 SNE26B49 SLP930 P0019 I1003 T10061017
KBGR 130053Z 01010KT 5SM -FZRASNPL BR OVC005 M02/M03 A2941 RMK AO2 SLP964 P0005 I1000 T10221028
KBGR 122353Z 01011KT 6SM -FZRASNPL BR OVC005 M04/M05 A2947 RMK AO2 FZRAB30SNB30PLB52 PRESFR SLP982 4/008 P0000 60006 I1000 I6000 T10391050 11039 21072 58060
KBGR 122330Z 01009KT 6SM -FZRASN BR OVC005 M04/M06 A2950 RMK AO2 FZRAB30SNB30 P0000 I1000 T10391056
KBGR 122253Z 03008KT 6SM BR OVC006 M05/M06 A2953 RMK AO2 SLP005 P0001 I1000 T10501061
KBGR 122234Z 02010KT 6SM BR OVC007 M05/M07 A2955 RMK AO2 P0001 I1000 T10501067
KBGR 122220Z 02010KT 4SM -SNPL BR OVC007 M05/M07 A2956 RMK AO2 PRESFR P0001 I1000 T10501067